Aérodrome :
LOGIN :

S'inscrire | Disclaimer

   EN    FR    IT 

 










Légende :    VFR   VFR Marginal   IFR   IFR Intensif   IFR Très Intensif
Visi : 
Plafond : 
>= 8 km
>= 3000ft
5 à 8 km
1000 à 3000 ft
1500m à 5 km
500 à 1000 ft
800 à 1500m
200 à 500 ft
< 800m
< 200 ft
Symboles :   Orages  Brouillard  Fortes neiges  Fortes précipitations  Vent > 20 kt
SIGMETs :   Divers  Orages  Givrage  Turbulence  Onde Orograph.  Cendres Volcan.







- Altitude de l'aérodrome : 1568 ft


ETSB - Büchel AB

DERNIER METAR :
  • 241720Z 31010KT 9999 SCT030 BKN050 18/11 Q1023 BLU BLU

METARs EXPIRÉS :
  • 241620Z 30006KT 9999 SCT030 BKN050 18/12 Q1023 BLU BLU
  • 241520Z 34008KT 9999 SCT030 BKN040 18/11 Q1024 BLU BLU
  • 241420Z 30005KT 9999 SCT033 BKN040 18/10 Q1024 BLU BLU

TAF TAF ETSB
Valide du 24 à 17h jusqu'au 25 à 02h UTC


241620Z 2417/2502 32007KT 9999 NSW SCT035 BKN050 BY ETGL
Pas de NOTAMs connus pour ce terrain.



MET'MAP, la Météo Aéronautique d'un coup d'oeil ! - Copyright ORBIFLY Décembre 2007 - Disclaimer

ORBIFLY MET'MAP TEAM :

Programmation & Développement : Alexandra Zaïnal
Conception & Développement : Baudouin d'Aumeries
Co-Programmation & Développement : Marc-Olivier Méhu
Soutien technique & logistique : Manuel Goepfert

Contact : metmap@orbifly.com




SOURCES & CREDITS :

   NOAA